Time;durP1;ratioP1;P1;durP2;ratioP2;P2;SDS_P1;SDS_P2;PMS_P1;PMS_P2;Temp;Humidity;BMP_temperature;BMP_pressure;BME280_temperature;BME280_humidity;BME280_pressure;Samples;Min_cycle;Max_cycle;Signal;HPM_P1;HPM_P2
2021/04/15 00:01:52;;;;;;;7.20;4.28;;;13.90;53.10;;;;;;5034293;28;20033;-72
2021/04/15 00:04:18;;;;;;;7.50;4.70;;;13.90;52.80;;;;;;5034580;28;20104;-72
2021/04/15 00:06:44;;;;;;;5.78;3.67;;;13.80;52.70;;;;;;5032724;28;20026;-72
2021/04/15 00:09:19;;;;;;;8.45;4.45;;;13.80;52.90;;;;;;5034305;28;20589;-73
2021/04/15 00:11:45;;;;;;;6.43;4.10;;;13.70;52.60;;;;;;5034021;28;20040;-73
2021/04/15 00:14:13;;;;;;;7.60;4.50;;;13.80;52.80;;;;;;5034014;28;20034;-73
2021/04/15 00:16:40;;;;;;;9.40;3.92;;;13.80;52.70;;;;;;5033996;28;20425;-72
2021/04/15 00:19:07;;;;;;;6.85;3.95;;;13.80;52.30;;;;;;5032589;28;20498;-72
2021/04/15 00:21:33;;;;;;;7.43;3.95;;;13.80;52.40;;;;;;5032316;28;20053;-72
2021/04/15 00:23:58;;;;;;;5.88;3.88;;;13.80;52.40;;;;;;5034115;28;20033;-72
2021/04/15 00:26:27;;;;;;;6.28;4.10;;;13.80;51.90;;;;;;5033804;28;20493;-72
2021/04/15 00:28:54;;;;;;;9.13;3.60;;;13.80;51.90;;;;;;5033928;28;20475;-72
2021/04/15 00:31:20;;;;;;;6.88;3.85;;;13.70;51.70;;;;;;5033659;28;20022;-73
2021/04/15 00:33:46;;;;;;;6.13;3.58;;;13.80;51.70;;;;;;5033292;28;20510;-72
2021/04/15 00:36:12;;;;;;;7.95;3.72;;;13.70;51.40;;;;;;5032131;28;20014;-72
2021/04/15 00:38:39;;;;;;;5.13;3.42;;;13.70;51.30;;;;;;5033643;28;20503;-74
2021/04/15 00:41:08;;;;;;;6.57;3.65;;;13.70;51.20;;;;;;5033439;28;20044;-73
2021/04/15 00:43:37;;;;;;;6.45;3.72;;;13.60;51.30;;;;;;5032273;28;20028;-73
2021/04/15 00:46:52;;;;;;;5.28;3.28;;;13.50;51.30;;;;;;5033510;28;20542;-73
2021/04/15 00:49:28;;;;;;;8.07;3.53;;;13.50;51.50;;;;;;5015583;28;20049;-71
2021/04/15 00:51:58;;;;;;;10.35;3.75;;;13.50;51.20;;;;;;5033261;28;20379;-72
2021/04/15 00:54:44;;;;;;;5.78;3.30;;;13.50;51.10;;;;;;5033321;28;20032;-72
2021/04/15 00:57:24;;;;;;;5.72;3.60;;;13.50;51.40;;;;;;5033440;28;20465;-73
2021/04/15 00:59:50;;;;;;;8.10;3.72;;;13.50;50.70;;;;;;5033436;28;20126;-70
2021/04/15 01:02:20;;;;;;;7.95;3.58;;;13.40;51.00;;;;;;5033118;28;20108;-74
2021/04/15 01:04:49;;;;;;;5.57;3.13;;;13.40;51.20;;;;;;5033466;28;20021;-72
2021/04/15 01:07:15;;;;;;;9.65;3.83;;;13.40;51.20;;;;;;5031760;28;20028;-72
2021/04/15 01:09:40;;;;;;;7.13;3.83;;;13.40;51.10;;;;;;5033117;28;20021;-71
2021/04/15 01:12:38;;;;;;;7.35;3.90;;;13.40;51.10;;;;;;5033062;28;20061;-72
2021/04/15 01:15:23;;;;;;;5.63;3.10;;;13.40;50.70;;;;;;5032752;28;20091;-73
2021/04/15 01:18:11;;;;;;;8.10;3.65;;;13.40;50.90;;;;;;5032399;28;20030;-72
2021/04/15 01:20:56;;;;;;;6.28;4.07;;;13.30;50.50;;;;;;5032242;28;20037;-71
2021/04/15 01:23:40;;;;;;;6.80;3.50;;;13.30;51.10;;;;;;5032547;28;20172;-72
2021/04/15 01:26:11;;;;;;;7.85;3.58;;;13.30;51.60;;;;;;5032688;28;20040;-71
2021/04/15 01:29:06;;;;;;;6.43;3.33;;;13.30;51.10;;;;;;5032777;28;20029;-72
2021/04/15 01:31:58;;;;;;;5.90;3.28;;;13.30;51.00;;;;;;5011620;28;20085;-71
2021/04/15 01:34:28;;;;;;;7.32;3.85;;;13.40;51.20;;;;;;5030746;28;20049;-70
2021/04/15 01:36:53;;;;;;;5.97;3.60;;;13.40;51.20;;;;;;5032755;28;20040;-71
2021/04/15 01:39:25;;;;;;;5.38;3.72;;;13.40;51.30;;;;;;5032797;28;20026;-71
2021/04/15 01:41:58;;;;;;;8.68;4.20;;;13.50;51.30;;;;;;5032670;28;20180;-69
2021/04/15 01:44:33;;;;;;;7.03;3.90;;;13.40;51.50;;;;;;5032578;28;20108;-71
2021/04/15 01:47:05;;;;;;;6.07;3.90;;;13.40;51.60;;;;;;5032615;28;20428;-70
2021/04/15 01:49:36;;;;;;;6.15;3.60;;;13.40;52.00;;;;;;5032457;28;20037;-70
2021/04/15 01:52:07;;;;;;;6.57;3.65;;;13.30;51.50;;;;;;5032489;28;20029;-71
2021/04/15 01:54:44;;;;;;;7.47;3.65;;;13.30;51.60;;;;;;5032726;28;20462;-72
2021/04/15 01:57:20;;;;;;;8.77;4.18;;;13.30;52.40;;;;;;5032899;28;20025;-73
2021/04/15 02:00:05;;;;;;;10.30;4.38;;;13.30;52.60;;;;;;5033417;28;20064;-71
2021/04/15 02:03:11;;;;;;;7.72;4.25;;;13.30;52.30;;;;;;5032442;28;20103;-72
2021/04/15 02:05:40;;;;;;;9.07;4.22;;;13.30;51.60;;;;;;5017780;28;20041;-73
2021/04/15 02:08:11;;;;;;;6.90;4.38;;;13.30;52.30;;;;;;5033457;28;20014;-73
2021/04/15 02:10:42;;;;;;;8.52;5.05;;;13.20;52.40;;;;;;5032129;28;20037;-72
2021/04/15 02:13:11;;;;;;;9.38;4.30;;;13.30;52.30;;;;;;5033885;28;20059;-73
2021/04/15 02:15:46;;;;;;;5.65;4.10;;;13.30;52.40;;;;;;5032524;28;20025;-72
2021/04/15 02:18:20;;;;;;;9.32;4.20;;;13.30;52.10;;;;;;5032730;28;20030;-73
2021/04/15 02:20:49;;;;;;;9.02;4.50;;;13.30;52.30;;;;;;5032432;28;20068;-72
2021/04/15 02:23:24;;;;;;;11.35;3.95;;;13.20;52.60;;;;;;5032123;28;20199;-72
2021/04/15 02:26:13;;;;;;;8.30;3.85;;;13.00;52.50;;;;;;5032301;28;20025;-71
2021/04/15 02:28:49;;;;;;;10.02;4.68;;;12.80;51.70;;;;;;5032493;28;20029;-73
2021/04/15 02:31:25;;;;;;;5.53;3.80;;;12.70;51.80;;;;;;5033593;28;20021;-72
2021/04/15 02:34:00;;;;;;;6.13;3.55;;;12.80;51.80;;;;;;5036023;28;20088;-72
2021/04/15 02:36:33;;;;;;;8.55;4.25;;;12.90;52.80;;;;;;5036034;28;20478;-73
2021/04/15 02:39:08;;;;;;;5.77;3.53;;;13.00;51.70;;;;;;5034534;28;20052;-72
2021/04/15 02:41:38;;;;;;;6.80;3.97;;;12.90;51.60;;;;;;5035763;28;20027;-73
2021/04/15 02:44:17;;;;;;;6.32;4.20;;;12.80;51.40;;;;;;5034695;28;20017;-74
2021/04/15 02:46:50;;;;;;;7.85;4.00;;;12.70;51.50;;;;;;5035661;28;20026;-72
2021/04/15 02:49:18;;;;;;;5.40;3.50;;;12.60;51.60;;;;;;5035840;28;20037;-71
2021/04/15 02:52:05;;;;;;;7.70;3.40;;;12.60;51.60;;;;;;5035384;28;20344;-72
2021/04/15 02:54:42;;;;;;;8.13;3.60;;;12.80;51.70;;;;;;5034259;28;20444;-73
2021/04/15 02:57:11;;;;;;;8.18;3.58;;;12.80;51.10;;;;;;5035759;28;20049;-73
2021/04/15 02:59:56;;;;;;;9.32;3.85;;;13.00;51.20;;;;;;5035552;28;20087;-73
2021/04/15 03:02:34;;;;;;;8.80;3.47;;;13.00;52.00;;;;;;5035419;28;20033;-72
2021/04/15 03:05:20;;;;;;;5.15;3.38;;;13.10;51.90;;;;;;5018944;28;20029;-72
2021/04/15 03:07:48;;;;;;;6.82;3.58;;;13.20;51.10;;;;;;5035376;28;20061;-71
2021/04/15 03:10:17;;;;;;;8.73;3.80;;;13.20;51.20;;;;;;5035106;28;20025;-73
2021/04/15 03:12:51;;;;;;;6.53;3.47;;;13.20;51.70;;;;;;5035188;28;20159;-73
2021/04/15 03:15:25;;;;;;;7.90;3.70;;;13.10;52.70;;;;;;5035199;28;20052;-73
2021/04/15 03:18:03;;;;;;;10.25;4.10;;;13.20;52.20;;;;;;5034908;28;20025;-72
2021/04/15 03:20:40;;;;;;;7.28;3.45;;;13.30;53.30;;;;;;5033682;28;20030;-72
2021/04/15 03:23:35;;;;;;;8.00;3.90;;;13.30;53.30;;;;;;5035356;28;20399;-73
2021/04/15 03:26:29;;;;;;;6.57;3.53;;;13.30;53.40;;;;;;5035045;28;20112;-73
2021/04/15 03:29:17;;;;;;;6.70;3.90;;;13.30;53.50;;;;;;5034805;28;20475;-72
2021/04/15 03:32:16;;;;;;;8.48;4.00;;;13.30;53.60;;;;;;5034663;28;20025;-73
2021/04/15 03:35:03;;;;;;;6.38;3.42;;;13.30;53.90;;;;;;5025715;28;20060;-71
2021/04/15 03:37:40;;;;;;;6.82;3.90;;;13.20;53.70;;;;;;5034750;28;20029;-74
2021/04/15 03:40:12;;;;;;;6.97;3.72;;;13.20;53.40;;;;;;5033204;28;20104;-72
2021/04/15 03:42:47;;;;;;;5.68;3.60;;;13.20;52.40;;;;;;5034523;28;20024;-73
2021/04/15 03:45:26;;;;;;;6.90;4.00;;;13.20;51.80;;;;;;5034526;28;20025;-71
2021/04/15 03:48:01;;;;;;;7.25;3.50;;;13.20;52.60;;;;;;5034355;28;20026;-71
2021/04/15 03:50:46;;;;;;;8.48;3.53;;;13.10;51.80;;;;;;5034665;28;20025;-73
2021/04/15 03:53:15;;;;;;;6.97;3.45;;;13.00;51.50;;;;;;5034386;28;20042;-73
2021/04/15 03:55:44;;;;;;;8.50;4.03;;;12.90;51.40;;;;;;5033119;28;20022;-73
2021/04/15 03:58:22;;;;;;;7.30;3.60;;;12.90;51.80;;;;;;5034429;28;20367;-73
2021/04/15 04:00:54;;;;;;;7.25;3.33;;;12.90;51.60;;;;;;5034646;28;20371;-73
2021/04/15 04:03:23;;;;;;;6.53;3.30;;;12.90;51.80;;;;;;5034397;28;20036;-73
2021/04/15 04:06:02;;;;;;;6.32;3.40;;;12.80;51.60;;;;;;5034290;28;20088;-72
2021/04/15 04:08:50;;;;;;;11.80;3.95;;;12.80;52.60;;;;;;5033056;28;20080;-73
2021/04/15 04:11:19;;;;;;;8.60;3.67;;;12.70;51.60;;;;;;5033866;28;20399;-72
2021/04/15 04:13:56;;;;;;;9.75;3.75;;;12.70;51.90;;;;;;5033769;28;20045;-73
2021/04/15 04:16:22;;;;;;;5.97;3.40;;;12.80;51.70;;;;;;5033945;28;20479;-72
2021/04/15 04:19:08;;;;;;;7.28;3.50;;;12.80;51.60;;;;;;5033803;28;20036;-71
2021/04/15 04:21:52;;;;;;;8.48;3.35;;;12.70;52.20;;;;;;5033690;28;20041;-72
2021/04/15 04:24:35;;;;;;;7.97;3.72;;;12.60;52.20;;;;;;5033864;28;20022;-71
2021/04/15 04:27:10;;;;;;;7.35;3.85;;;12.50;51.50;;;;;;5033830;28;20519;-72
2021/04/15 04:29:46;;;;;;;9.60;3.45;;;12.50;52.00;;;;;;5033552;28;20056;-72
2021/04/15 04:32:15;;;;;;;7.85;3.28;;;12.40;52.10;;;;;;5033598;28;20063;-72
2021/04/15 04:34:42;;;;;;;8.60;3.70;;;12.50;51.90;;;;;;5032020;28;20033;-73
2021/04/15 04:37:13;;;;;;;9.90;3.47;;;12.60;51.30;;;;;;5032419;28;20500;-73
2021/04/15 04:39:39;;;;;;;7.85;3.47;;;12.60;51.20;;;;;;5033599;28;20032;-72
2021/04/15 04:42:28;;;;;;;7.03;3.42;;;12.60;51.30;;;;;;5033521;28;20026;-72
2021/04/15 04:44:57;;;;;;;5.57;3.20;;;12.60;52.30;;;;;;5033460;28;20053;-74
2021/04/15 04:48:00;;;;;;;8.80;3.58;;;12.60;51.40;;;;;;5033408;28;20377;-74
2021/04/15 04:50:28;;;;;;;7.97;3.50;;;12.80;52.20;;;;;;5017248;28;20030;-70
2021/04/15 04:53:06;;;;;;;5.22;3.13;;;12.80;51.40;;;;;;5031588;28;20041;-72
2021/04/15 04:55:35;;;;;;;7.88;3.65;;;12.80;50.90;;;;;;5033365;28;20041;-73
2021/04/15 04:58:00;;;;;;;11.88;4.47;;;12.90;51.20;;;;;;5033612;28;20029;-73
2021/04/15 05:00:27;;;;;;;7.30;3.65;;;12.90;51.40;;;;;;5033278;28;20021;-73
2021/04/15 05:02:56;;;;;;;8.88;4.25;;;12.90;51.30;;;;;;5033362;28;20107;-71
2021/04/15 05:05:28;;;;;;;10.73;4.32;;;12.90;52.00;;;;;;5033288;28;20029;-72
2021/04/15 05:08:05;;;;;;;6.05;3.50;;;12.90;51.30;;;;;;5032950;28;20029;-71
2021/04/15 05:10:32;;;;;;;7.15;3.50;;;12.90;51.10;;;;;;5032920;28;20125;-72
2021/04/15 05:13:11;;;;;;;6.28;3.10;;;12.80;51.10;;;;;;5032997;28;20087;-72
2021/04/15 05:15:38;;;;;;;8.68;3.53;;;12.80;52.10;;;;;;5033085;28;20045;-71
2021/04/15 05:18:07;;;;;;;11.10;3.60;;;12.70;51.20;;;;;;5033059;28;20032;-70
2021/04/15 05:23:18;;;;;;;6.72;3.78;;;12.80;51.50;;;;;;5031212;28;20046;-70
2021/04/15 05:26:10;;;;;;;7.05;3.95;;;12.80;51.70;;;;;;5032528;28;20084;-67
2021/04/15 05:28:37;;;;;;;13.02;4.10;;;12.80;51.50;;;;;;5032682;28;20026;-69
2021/04/15 05:31:06;;;;;;;7.85;3.45;;;12.80;50.60;;;;;;5032356;28;20054;-67
2021/04/15 05:33:34;;;;;;;6.80;4.03;;;12.70;50.30;;;;;;5032483;28;20075;-69
2021/04/15 05:36:19;;;;;;;9.45;4.65;;;12.70;50.60;;;;;;5031127;28;20022;-67
2021/04/15 05:38:51;;;;;;;9.27;5.47;;;12.70;51.80;;;;;;5031527;28;20448;-67
2021/04/15 05:41:33;;;;;;;11.25;5.25;;;12.70;51.70;;;;;;5032503;28;20025;-68
2021/04/15 05:44:04;;;;;;;9.38;4.05;;;12.80;51.80;;;;;;5032602;28;20021;-69
2021/04/15 05:46:46;;;;;;;8.63;3.70;;;12.90;50.60;;;;;;5032403;28;20068;-67
2021/04/15 05:49:38;;;;;;;10.38;4.38;;;12.90;50.40;;;;;;5031112;28;20352;-68
2021/04/15 05:52:23;;;;;;;10.10;4.38;;;13.10;50.40;;;;;;5031745;28;20151;-67
2021/04/15 05:54:51;;;;;;;8.27;4.60;;;13.20;51.20;;;;;;5032281;28;20033;-67
2021/04/15 05:57:22;;;;;;;10.68;4.55;;;13.30;50.00;;;;;;5032249;28;20021;-68
2021/04/15 06:00:03;;;;;;;10.20;5.22;;;13.30;49.70;;;;;;5032061;28;20029;-68
2021/04/15 06:02:35;;;;;;;10.25;5.10;;;13.50;50.40;;;;;;5032339;28;20021;-70
2021/04/15 06:05:39;;;;;;;8.10;4.28;;;13.60;49.60;;;;;;5034801;28;20112;-69
2021/04/15 06:08:07;;;;;;;9.25;4.38;;;13.80;49.90;;;;;;5035839;28;20101;-69
2021/04/15 06:10:36;;;;;;;11.70;4.82;;;13.90;49.10;;;;;;5035711;28;20018;-68
2021/04/15 06:13:04;;;;;;;7.25;4.38;;;13.80;49.10;;;;;;5035884;28;20395;-70
2021/04/15 06:15:35;;;;;;;10.20;4.43;;;13.80;49.10;;;;;;5035870;28;20029;-69
2021/04/15 06:18:35;;;;;;;7.45;4.47;;;13.80;49.60;;;;;;5035952;28;20100;-70
2021/04/15 06:21:01;;;;;;;8.90;4.80;;;13.90;49.50;;;;;;5035555;28;20031;-70
2021/04/15 06:24:05;;;;;;;9.10;4.25;;;13.90;49.10;;;;;;5035775;28;20113;-68
2021/04/15 06:26:35;;;;;;;9.07;4.60;;;13.80;48.90;;;;;;4975032;28;20031;-71
2021/04/15 06:29:15;;;;;;;9.70;5.00;;;13.80;49.30;;;;;;5026226;28;20029;-68
2021/04/15 06:31:43;;;;;;;10.15;5.28;;;13.70;49.70;;;;;;5034154;28;20029;-70
2021/04/15 06:34:11;;;;;;;17.67;6.20;;;13.70;49.30;;;;;;5035240;28;20064;-70
2021/04/15 06:36:46;;;;;;;9.60;5.03;;;13.70;49.40;;;;;;5035194;28;20421;-70
2021/04/15 06:39:34;;;;;;;11.00;5.00;;;13.80;49.40;;;;;;5035515;28;20504;-69
2021/04/15 06:42:18;;;;;;;11.63;5.47;;;13.90;49.50;;;;;;5035056;28;20033;-68
2021/04/15 06:45:02;;;;;;;7.68;5.10;;;13.90;49.10;;;;;;5035085;28;20028;-69
2021/04/15 06:47:43;;;;;;;7.63;5.05;;;14.20;49.40;;;;;;5040286;28;20021;-70
2021/04/15 06:50:11;;;;;;;13.80;5.38;;;14.40;49.30;;;;;;5036739;28;20087;-71
2021/04/15 06:52:59;;;;;;;6.35;4.18;;;14.70;48.90;;;;;;5035432;28;20069;-72
2021/04/15 06:55:43;;;;;;;11.38;5.45;;;15.00;48.10;;;;;;5033640;28;20030;-72
2021/04/15 06:58:34;;;;;;;10.57;4.82;;;15.30;48.00;;;;;;5034985;28;20045;-71
2021/04/15 07:01:05;;;;;;;21.85;15.38;;;15.40;47.70;;;;;;5034924;28;20037;-70
2021/04/15 07:03:42;;;;;;;9.98;5.25;;;15.40;47.60;;;;;;5033553;28;20033;-70
2021/04/15 07:06:13;;;;;;;8.63;4.57;;;15.30;47.10;;;;;;5034917;28;20026;-69
2021/04/15 07:08:47;;;;;;;11.32;4.30;;;15.20;47.60;;;;;;5034827;28;20028;-71
2021/04/15 07:11:54;;;;;;;9.90;4.30;;;15.10;47.20;;;;;;5034697;28;20025;-68
2021/04/15 07:14:30;;;;;;;12.32;4.35;;;15.00;47.00;;;;;;5034746;28;20128;-68
2021/04/15 07:17:20;;;;;;;9.27;3.95;;;15.10;47.20;;;;;;5033910;28;20021;-68
2021/04/15 07:20:10;;;;;;;8.73;4.97;;;15.20;46.90;;;;;;5034828;28;20030;-68
2021/04/15 07:22:42;;;;;;;9.57;4.68;;;15.40;47.20;;;;;;5034695;28;20087;-68
2021/04/15 07:25:43;;;;;;;8.73;4.00;;;15.60;47.10;;;;;;5034295;28;20037;-68
2021/04/15 07:28:46;;;;;;;9.73;4.07;;;15.70;46.80;;;;;;5034795;28;20018;-70
2021/04/15 07:31:30;;;;;;;9.02;4.45;;;15.80;46.70;;;;;;5033165;28;20060;-67
2021/04/15 07:34:07;;;;;;;11.25;4.25;;;15.80;45.90;;;;;;5034533;28;20037;-69
2021/04/15 07:37:08;;;;;;;8.18;4.03;;;15.80;46.20;;;;;;5034393;28;20459;-68
2021/04/15 07:39:57;;;;;;;8.63;3.90;;;15.90;46.00;;;;;;5034510;28;20022;-69
2021/04/15 07:42:40;;;;;;;7.40;4.10;;;15.90;45.30;;;;;;5034245;28;20030;-68
2021/04/15 07:45:09;;;;;;;10.32;4.55;;;16.00;45.60;;;;;;5032780;28;20029;-68
2021/04/15 07:47:55;;;;;;;6.38;4.07;;;16.10;45.90;;;;;;5034536;28;20024;-67
2021/04/15 07:50:45;;;;;;;8.90;3.92;;;16.10;45.20;;;;;;5034033;28;20029;-68
2021/04/15 07:53:47;;;;;;;6.15;3.58;;;16.10;44.70;;;;;;5034066;28;20041;-68
2021/04/15 07:56:29;;;;;;;7.47;3.78;;;16.10;44.80;;;;;;5034577;28;20080;-69
2021/04/15 07:59:03;;;;;;;9.32;3.50;;;16.10;45.30;;;;;;5034295;28;20025;-69
2021/04/15 08:01:53;;;;;;;8.60;3.72;;;16.00;44.30;;;;;;5034141;28;20100;-69
2021/04/15 08:04:22;;;;;;;7.00;3.40;;;16.00;44.50;;;;;;5034236;28;20423;-70
2021/04/15 08:07:14;;;;;;;6.65;3.60;;;16.00;44.70;;;;;;5034225;28;20025;-68
2021/04/15 08:10:18;;;;;;;8.95;3.40;;;16.10;45.10;;;;;;5032808;28;20048;-69
2021/04/15 08:13:15;;;;;;;8.68;3.53;;;16.20;44.80;;;;;;5020642;28;20083;-68
2021/04/15 08:16:32;;;;;;;5.30;3.35;;;16.20;44.50;;;;;;5033886;28;20075;-68
2021/04/15 08:19:00;;;;;;;8.38;3.45;;;16.20;44.00;;;;;;4979874;28;20114;-71
2021/04/15 08:21:54;;;;;;;5.47;3.47;;;16.30;45.00;;;;;;5033423;28;20049;-68
2021/04/15 08:24:49;;;;;;;8.85;3.75;;;16.40;44.90;;;;;;5011722;28;20037;-69
2021/04/15 08:27:36;;;;;;;8.70;3.60;;;16.50;44.40;;;;;;5033932;28;20025;-70
2021/04/15 08:30:22;;;;;;;7.47;3.63;;;16.50;44.30;;;;;;5032352;28;20025;-69
2021/04/15 08:32:56;;;;;;;13.40;5.15;;;16.40;44.60;;;;;;5033571;28;20072;-69
2021/04/15 08:35:24;;;;;;;;;;;16.40;44.00;;;;;;5033811;28;20061;-69
2021/04/15 08:37:50;;;;;;;10.35;3.90;;;16.40;44.00;;;;;;5033876;28;19909;-70
2021/04/15 08:40:53;;;;;;;6.35;3.58;;;16.50;45.10;;;;;;5033427;28;20032;-69
2021/04/15 08:43:51;;;;;;;7.80;3.45;;;16.50;44.00;;;;;;5033347;28;20021;-67
2021/04/15 08:46:22;;;;;;;9.27;3.83;;;16.40;43.50;;;;;;5033302;28;20030;-68
2021/04/15 08:48:50;;;;;;;6.95;4.65;;;16.50;43.90;;;;;;5033415;28;20017;-68
2021/04/15 08:51:40;;;;;;;9.68;3.50;;;16.50;43.80;;;;;;5033107;28;20372;-70
2021/04/15 08:54:35;;;;;;;9.13;3.40;;;16.50;44.90;;;;;;5033074;28;20028;-68
2021/04/15 08:57:00;;;;;;;7.47;3.70;;;16.40;43.20;;;;;;5033170;28;20074;-69
2021/04/15 08:59:39;;;;;;;11.95;3.67;;;16.40;44.40;;;;;;5031614;28;20117;-69
2021/04/15 09:02:20;;;;;;;7.35;4.32;;;16.40;43.40;;;;;;5032673;28;20050;-71
2021/04/15 09:04:49;;;;;;;8.52;3.80;;;16.50;44.50;;;;;;5032926;28;20470;-68
2021/04/15 09:07:19;;;;;;;8.00;3.58;;;16.50;44.50;;;;;;5033011;28;20475;-69
2021/04/15 09:09:51;;;;;;;7.43;4.25;;;16.50;44.70;;;;;;5032798;28;20017;-72
2021/04/15 09:12:48;;;;;;;6.85;3.88;;;16.50;44.20;;;;;;5032578;28;20037;-70
2021/04/15 09:15:32;;;;;;;7.72;4.18;;;16.50;44.40;;;;;;5032527;28;20473;-72
2021/04/15 09:18:13;;;;;;;8.43;3.40;;;16.60;44.00;;;;;;5032862;28;20029;-70
2021/04/15 09:21:04;;;;;;;7.55;3.38;;;16.60;44.00;;;;;;5032212;28;20025;-70
2021/04/15 09:23:35;;;;;;;7.60;3.33;;;16.70;43.60;;;;;;5032573;28;20057;-71
2021/04/15 09:26:21;;;;;;;9.35;3.60;;;16.80;43.90;;;;;;5030814;28;20038;-69
2021/04/15 09:29:05;;;;;;;10.20;3.40;;;16.90;43.10;;;;;;5032589;28;20108;-70
2021/04/15 09:31:56;;;;;;;6.15;4.03;;;16.90;42.90;;;;;;5032761;28;20505;-71
2021/04/15 09:34:43;;;;;;;6.75;3.50;;;17.00;42.70;;;;;;5032710;28;20064;-69
2021/04/15 09:37:15;;;;;;;10.32;4.07;;;17.10;43.40;;;;;;5032336;28;20171;-67
2021/04/15 09:40:02;;;;;;;6.78;3.25;;;17.10;42.80;;;;;;5036552;28;20060;-70
2021/04/15 09:42:40;;;;;;;7.38;3.05;;;17.10;41.80;;;;;;5038690;28;20030;-70
2021/04/15 09:45:11;;;;;;;6.97;3.53;;;17.10;42.00;;;;;;5039085;28;20025;-69
2021/04/15 09:47:47;;;;;;;7.90;3.40;;;17.10;42.30;;;;;;5039368;28;20022;-67
2021/04/15 09:50:32;;;;;;;5.90;3.13;;;17.10;42.90;;;;;;5039015;28;20032;-68
2021/04/15 09:53:07;;;;;;;6.95;3.60;;;17.20;42.00;;;;;;5039186;28;20045;-71
2021/04/15 09:55:58;;;;;;;8.82;3.33;;;17.20;42.50;;;;;;5039251;28;20024;-70
2021/04/15 09:58:47;;;;;;;9.25;3.88;;;17.40;42.80;;;;;;5039097;28;20039;-72
2021/04/15 10:01:20;;;;;;;6.50;3.17;;;17.40;41.90;;;;;;5039026;28;20033;-69
2021/04/15 10:04:05;;;;;;;9.20;3.50;;;17.50;42.30;;;;;;5039179;28;20029;-69
2021/04/15 10:06:37;;;;;;;7.95;3.08;;;17.60;42.20;;;;;;5038883;28;20022;-71
2021/04/15 10:09:17;;;;;;;6.50;3.20;;;17.50;41.80;;;;;;5039093;28;20053;-70
2021/04/15 10:12:07;;;;;;;7.45;3.40;;;17.50;42.00;;;;;;5039159;28;20088;-69
2021/04/15 10:15:05;;;;;;;6.80;3.40;;;17.50;41.00;;;;;;5038821;28;20343;-71
2021/04/15 10:18:05;;;;;;;10.27;4.40;;;17.50;40.90;;;;;;5039308;28;20037;-70
2021/04/15 10:20:50;;;;;;;6.85;3.53;;;17.50;40.80;;;;;;5038776;28;20335;-69
2021/04/15 10:23:26;;;;;;;6.90;3.30;;;17.60;42.00;;;;;;5038644;28;20046;-69
2021/04/15 10:26:19;;;;;;;8.55;3.85;;;17.60;41.20;;;;;;5038834;28;20085;-69
2021/04/15 10:28:50;;;;;;;8.02;3.72;;;17.60;42.40;;;;;;5038678;28;20021;-70
2021/04/15 10:31:34;;;;;;;9.10;3.10;;;17.60;41.20;;;;;;5038591;28;20041;-69
2021/04/15 10:34:06;;;;;;;7.80;3.30;;;17.70;42.40;;;;;;5037196;28;20041;-70
2021/04/15 10:36:52;;;;;;;8.68;3.35;;;17.90;42.40;;;;;;5038454;28;20049;-70
2021/04/15 10:39:36;;;;;;;12.18;3.55;;;17.90;41.10;;;;;;5038688;28;20479;-68
2021/04/15 10:42:07;;;;;;;;;;;18.10;40.90;;;;;;5038926;28;20037;-69
2021/04/15 10:44:46;;;;;;;10.35;3.25;;;18.10;40.40;;;;;;5038148;28;19909;-71
2021/04/15 10:47:31;;;;;;;7.63;3.30;;;18.20;40.70;;;;;;5038440;28;20029;-69
2021/04/15 10:50:16;;;;;;;7.28;3.20;;;18.30;41.70;;;;;;5037990;28;20056;-70
2021/04/15 10:53:20;;;;;;;8.63;3.47;;;18.30;40.30;;;;;;5034104;28;20051;-72
2021/04/15 10:56:04;;;;;;;8.68;2.90;;;18.30;39.70;;;;;;4981342;28;20546;-71
2021/04/15 10:58:29;;;;;;;7.47;2.95;;;18.40;41.30;;;;;;5034591;28;20097;-70
2021/04/15 11:01:15;;;;;;;6.50;2.95;;;18.40;40.80;;;;;;5034806;28;20452;-72
2021/04/15 11:03:41;;;;;;;5.20;2.67;;;18.40;40.50;;;;;;5034979;28;20028;-70
2021/04/15 11:06:11;;;;;;;5.50;2.70;;;18.30;40.20;;;;;;5034907;28;20108;-69
2021/04/15 11:08:36;;;;;;;7.57;2.75;;;18.30;40.30;;;;;;5033669;28;20083;-70
2021/04/15 11:11:10;;;;;;;7.53;3.05;;;18.20;40.20;;;;;;5035095;28;20029;-69
2021/04/15 11:13:37;;;;;;;7.28;3.20;;;18.10;40.40;;;;;;5034813;28;20042;-70
2021/04/15 11:16:04;;;;;;;7.63;2.67;;;18.00;40.50;;;;;;5033726;28;20044;-70
2021/04/15 11:18:35;;;;;;;7.10;3.08;;;17.90;40.00;;;;;;5034934;28;20117;-69
2021/04/15 11:21:31;;;;;;;5.47;2.85;;;17.80;40.70;;;;;;5034409;28;20041;-69
2021/04/15 11:24:20;;;;;;;7.30;3.10;;;17.70;39.80;;;;;;5034956;28;20041;-69
2021/04/15 11:26:48;;;;;;;8.77;3.42;;;17.70;40.60;;;;;;5034446;28;20072;-69
2021/04/15 11:29:25;;;;;;;6.07;2.80;;;17.70;41.60;;;;;;5034545;28;20022;-69
2021/04/15 11:31:51;;;;;;;6.47;2.92;;;17.80;41.40;;;;;;5034355;28;20037;-68
2021/04/15 11:34:24;;;;;;;8.65;3.00;;;17.80;41.50;;;;;;5034685;28;20029;-70
2021/04/15 11:37:05;;;;;;;8.05;3.35;;;17.80;41.60;;;;;;5034878;28;20022;-69
2021/04/15 11:39:36;;;;;;;7.47;3.15;;;17.80;41.70;;;;;;5034860;28;20037;-68
2021/04/15 11:42:11;;;;;;;6.07;2.83;;;18.00;41.90;;;;;;5034299;28;20030;-70
2021/04/15 11:44:53;;;;;;;6.82;2.65;;;18.10;41.80;;;;;;5034836;28;20031;-68
2021/04/15 11:47:25;;;;;;;6.50;2.92;;;18.30;40.40;;;;;;5034732;28;20025;-69
2021/04/15 11:49:53;;;;;;;5.07;2.90;;;18.50;40.70;;;;;;5034437;28;20087;-68
2021/04/15 11:52:26;;;;;;;6.47;3.00;;;18.60;41.60;;;;;;5033206;28;20430;-68
2021/04/15 11:54:51;;;;;;;4.85;2.72;;;18.70;41.40;;;;;;5034306;28;20369;-69
2021/04/15 11:57:20;;;;;;;9.43;2.85;;;18.80;40.90;;;;;;5034368;28;20032;-69
2021/04/15 12:00:01;;;;;;;5.78;2.90;;;19.00;40.50;;;;;;5034318;28;20470;-71
2021/04/15 12:02:42;;;;;;;7.15;2.38;;;19.20;40.40;;;;;;5033799;28;20044;-70
2021/04/15 12:05:12;;;;;;;6.40;2.72;;;19.30;38.80;;;;;;5034102;28;20030;-70
2021/04/15 12:07:40;;;;;;;5.93;2.85;;;19.30;40.20;;;;;;5034036;28;20432;-69
2021/04/15 12:10:09;;;;;;;9.55;2.58;;;19.20;40.20;;;;;;5034128;28;20022;-69
2021/04/15 12:12:38;;;;;;;6.30;2.60;;;19.30;40.20;;;;;;5034319;28;20068;-70
2021/04/15 12:15:13;;;;;;;5.15;2.50;;;19.40;40.20;;;;;;5034264;28;20057;-71
2021/04/15 12:17:48;;;;;;;9.43;2.60;;;19.40;40.10;;;;;;5033843;28;20033;-68
2021/04/15 12:20:33;;;;;;;8.93;2.80;;;19.50;39.10;;;;;;5033996;28;20036;-69
2021/04/15 12:23:13;;;;;;;5.95;2.38;;;19.70;39.10;;;;;;5033857;28;20140;-69
2021/04/15 12:25:47;;;;;;;6.60;2.30;;;19.70;39.90;;;;;;5033980;28;20029;-67
2021/04/15 12:28:25;;;;;;;6.82;2.30;;;19.80;40.00;;;;;;5033891;28;20018;-71
2021/04/15 12:31:00;;;;;;;7.45;2.40;;;19.90;38.50;;;;;;5033969;28;20113;-70
2021/04/15 12:34:05;;;;;;;3.72;2.00;;;20.00;39.80;;;;;;5034357;28;20037;-69
2021/04/15 12:36:39;;;;;;;15.70;10.35;;;19.80;38.50;;;;;;4973363;28;20082;-69
2021/04/15 12:39:09;;;;;;;5.35;2.75;;;19.60;39.10;;;;;;4973139;28;20031;-70
2021/04/15 12:41:37;;;;;;;7.35;2.72;;;19.40;40.60;;;;;;5006318;28;20034;-69
2021/04/15 12:44:08;;;;;;;7.35;2.40;;;19.40;41.00;;;;;;5033631;28;20051;-72
2021/04/15 12:46:35;;;;;;;6.30;2.53;;;19.40;41.10;;;;;;5033647;28;20025;-73
2021/04/15 12:49:07;;;;;;;7.07;2.67;;;19.40;41.20;;;;;;5033573;28;20025;-71
2021/04/15 12:51:38;;;;;;;4.60;2.08;;;19.50;41.20;;;;;;5033553;28;20374;-72
2021/04/15 12:54:16;;;;;;;8.02;2.30;;;19.50;40.90;;;;;;5033606;28;20103;-70
2021/04/15 12:56:48;;;;;;;5.30;2.40;;;19.40;40.00;;;;;;5033369;28;20037;-69
2021/04/15 12:59:21;;;;;;;5.00;1.92;;;19.40;41.60;;;;;;5033477;28;20017;-70
2021/04/15 13:01:47;;;;;;;5.15;2.17;;;19.30;40.50;;;;;;5033188;28;20052;-70
2021/04/15 13:04:31;;;;;;;4.60;1.90;;;19.30;41.90;;;;;;5031890;28;20029;-71
2021/04/15 13:07:00;;;;;;;;;;;19.30;41.90;;;;;;5033700;28;20487;-70
2021/04/15 13:09:35;;;;;;;6.88;2.70;;;19.40;40.60;;;;;;5033081;28;19905;-71
2021/04/15 13:12:21;;;;;;;12.93;2.28;;;19.60;40.70;;;;;;5033078;28;20072;-70
2021/04/15 13:14:59;;;;;;;5.60;1.85;;;19.50;41.70;;;;;;5032094;28;20552;-71
2021/04/15 13:17:39;;;;;;;6.60;2.45;;;19.50;40.70;;;;;;5032522;28;20474;-71
2021/04/15 13:20:19;;;;;;;6.68;2.17;;;19.40;41.00;;;;;;5032893;28;20162;-71
2021/04/15 13:22:55;;;;;;;4.40;2.00;;;19.30;40.90;;;;;;5032553;28;20049;-69
2021/04/15 13:25:26;;;;;;;7.60;2.03;;;19.30;42.20;;;;;;5032952;28;20026;-68
2021/04/15 13:27:57;;;;;;;7.03;1.95;;;19.20;42.40;;;;;;5032613;28;20025;-69
2021/04/15 13:30:41;;;;;;;5.15;1.80;;;19.10;42.50;;;;;;5032748;28;20026;-69
2021/04/15 13:33:12;;;;;;;5.80;1.77;;;18.90;41.70;;;;;;5033043;28;20133;-71
2021/04/15 13:35:59;;;;;;;12.98;2.33;;;18.80;41.80;;;;;;5032640;28;20253;-69
2021/04/15 13:41:19;;;;;;;5.32;1.83;;;19.00;41.50;;;;;;5032411;28;20181;-70
2021/04/15 13:43:53;;;;;;;7.20;2.05;;;19.00;41.80;;;;;;5032429;28;20378;-72
2021/04/15 13:46:18;;;;;;;;;;;18.80;41.80;;;;;;5033088;28;20104;-70